createdAt,value
2019-05-28T00:01:36.018Z,13.80
2019-05-28T00:04:09.413Z,13.80
2019-05-28T00:06:40.561Z,13.80
2019-05-28T00:11:47.522Z,13.80
2019-05-28T00:14:23.613Z,13.90
2019-05-28T00:17:00.352Z,13.90
2019-05-28T00:19:33.337Z,13.90
2019-05-28T00:22:04.455Z,13.90
2019-05-28T00:24:45.586Z,13.90
2019-05-28T00:27:19.293Z,13.90
2019-05-28T00:29:50.482Z,13.90
2019-05-28T00:32:18.937Z,13.80
2019-05-28T00:34:51.051Z,13.90
2019-05-28T00:37:23.898Z,13.90
2019-05-28T00:39:56.382Z,13.90
2019-05-28T00:42:29.410Z,13.90
2019-05-28T00:44:57.878Z,13.90
2019-05-28T00:47:31.946Z,13.80
2019-05-28T00:50:00.885Z,13.80
2019-05-28T00:52:35.105Z,13.80
2019-05-28T00:55:10.982Z,13.80
2019-05-28T00:57:54.042Z,13.80
2019-05-28T01:00:48.294Z,13.80
2019-05-28T01:03:20.084Z,13.80
2019-05-28T01:05:48.628Z,13.90
2019-05-28T01:08:20.082Z,13.90
2019-05-28T01:10:48.834Z,13.90
2019-05-28T01:13:20.168Z,13.90
2019-05-28T01:15:48.689Z,13.90
2019-05-28T01:18:18.797Z,13.90
2019-05-28T01:20:50.358Z,13.90
2019-05-28T01:23:18.894Z,13.90
2019-05-28T01:25:48.302Z,13.90
2019-05-28T01:28:24.167Z,13.90
2019-05-28T01:31:00.413Z,14.00
2019-05-28T01:33:28.266Z,14.00
2019-05-28T01:35:58.450Z,14.00
2019-05-28T01:38:30.474Z,14.00
2019-05-28T01:40:58.941Z,13.90
2019-05-28T01:43:29.040Z,14.00
2019-05-28T01:45:57.505Z,14.00
2019-05-28T01:48:25.969Z,14.00
2019-05-28T01:50:58.825Z,14.00
2019-05-28T01:53:30.070Z,14.00
2019-05-28T01:56:01.046Z,14.00
2019-05-28T01:58:29.781Z,13.90
2019-05-28T02:01:12.116Z,14.00
2019-05-28T02:03:34.630Z,14.00
2019-05-28T02:06:05.897Z,14.00
2019-05-28T02:08:35.994Z,14.00
2019-05-28T02:11:05.720Z,13.90
2019-05-28T02:13:34.210Z,13.90
2019-05-28T02:16:05.914Z,13.90
2019-05-28T02:18:36.021Z,14.00
2019-05-28T02:21:07.198Z,14.00
2019-05-28T02:23:38.230Z,14.00
2019-05-28T02:26:07.555Z,14.00
2019-05-28T02:28:37.654Z,14.00
2019-05-28T02:31:06.632Z,14.00
2019-05-28T02:33:36.733Z,14.00
2019-05-28T02:36:08.305Z,14.00
2019-05-28T02:38:39.843Z,13.90
2019-05-28T02:41:12.841Z,13.90
2019-05-28T02:43:41.311Z,13.90
2019-05-28T02:46:12.532Z,13.90
2019-05-28T02:48:41.080Z,14.00
2019-05-28T02:51:10.144Z,14.00
2019-05-28T02:53:39.761Z,14.00
2019-05-28T02:56:08.774Z,14.00
2019-05-28T02:58:39.861Z,14.00
2019-05-28T03:01:12.338Z,14.00
2019-05-28T03:03:49.700Z,14.00
2019-05-28T03:06:17.071Z,14.10
2019-05-28T03:08:47.070Z,14.10
2019-05-28T03:11:26.745Z,14.10
2019-05-28T03:13:55.361Z,14.10
2019-05-28T03:16:26.914Z,14.10
2019-05-28T03:18:57.307Z,14.10
2019-05-28T03:21:27.352Z,13.90
2019-05-28T03:24:00.451Z,13.80
2019-05-28T03:26:33.353Z,13.80
2019-05-28T03:29:16.779Z,13.80
2019-05-28T03:32:06.133Z,13.80
2019-05-28T03:34:47.499Z,13.90
2019-05-28T03:37:07.310Z,13.90
2019-05-28T03:39:38.202Z,13.90
2019-05-28T03:42:15.639Z,13.90
2019-05-28T03:44:44.099Z,13.90
2019-05-28T03:47:12.570Z,14.00
2019-05-28T03:49:42.734Z,14.00
2019-05-28T03:52:17.645Z,14.00
2019-05-28T03:54:47.749Z,14.10
2019-05-28T03:57:27.068Z,14.10
2019-05-28T03:59:58.256Z,14.10
2019-05-28T04:02:26.788Z,14.10
2019-05-28T04:04:55.383Z,14.20
2019-05-28T04:07:27.601Z,14.20
2019-05-28T04:09:57.702Z,14.20
2019-05-28T04:12:30.931Z,14.30
2019-05-28T04:14:59.466Z,14.30
2019-05-28T04:17:29.576Z,14.30
2019-05-28T04:19:58.390Z,14.40
2019-05-28T04:22:27.640Z,14.40
2019-05-28T04:25:06.642Z,14.40
2019-05-28T04:27:35.386Z,14.40
2019-05-28T04:30:05.984Z,14.50
2019-05-28T04:32:40.495Z,14.50
2019-05-28T04:35:06.791Z,14.50
2019-05-28T04:37:41.719Z,14.50
2019-05-28T04:40:12.422Z,14.50
2019-05-28T04:42:41.751Z,14.50
2019-05-28T04:45:12.890Z,14.50
2019-05-28T04:47:44.393Z,14.40
2019-05-28T04:50:17.388Z,14.40
2019-05-28T04:52:49.403Z,14.30
2019-05-28T04:55:18.272Z,14.20
2019-05-28T04:57:51.343Z,14.10
2019-05-28T05:00:22.973Z,14.10
2019-05-28T05:02:59.711Z,14.10
2019-05-28T05:05:28.850Z,14.10
2019-05-28T05:08:00.090Z,14.20
2019-05-28T05:10:28.541Z,14.20
2019-05-28T05:12:57.009Z,14.20
2019-05-28T05:15:25.461Z,14.30
2019-05-28T05:18:01.195Z,14.30
2019-05-28T05:20:37.818Z,14.30
2019-05-28T05:23:06.285Z,14.40
2019-05-28T05:25:34.747Z,14.40
2019-05-28T05:28:07.566Z,14.40
2019-05-28T05:30:46.595Z,14.40
2019-05-28T05:33:19.976Z,14.50
2019-05-28T05:35:51.405Z,14.50
2019-05-28T05:38:23.578Z,14.60
2019-05-28T05:40:57.979Z,14.70
2019-05-28T05:43:29.142Z,14.80
2019-05-28T05:45:59.048Z,14.80
2019-05-28T05:48:30.656Z,14.90
2019-05-28T05:50:59.399Z,14.90
2019-05-28T05:53:33.957Z,14.80
2019-05-28T05:56:14.518Z,14.70
2019-05-28T05:58:53.419Z,14.60
2019-05-28T06:01:24.687Z,14.50
2019-05-28T06:03:58.732Z,14.50
2019-05-28T06:06:29.895Z,14.60
2019-05-28T06:09:00.326Z,14.50
2019-05-28T06:11:41.122Z,14.50
2019-05-28T06:14:09.619Z,14.60
2019-05-28T06:16:41.073Z,14.60
2019-05-28T06:19:16.808Z,14.60
2019-05-28T06:21:45.173Z,14.70
2019-05-28T06:24:21.221Z,14.70
2019-05-28T06:26:55.090Z,14.60
2019-05-28T06:29:23.561Z,14.60
2019-05-28T06:31:52.058Z,14.60
2019-05-28T06:34:26.594Z,14.60
2019-05-28T06:36:57.869Z,14.60
2019-05-28T06:39:26.335Z,14.60
2019-05-28T06:41:59.330Z,14.60
2019-05-28T06:44:36.754Z,14.60
2019-05-28T06:47:06.943Z,14.50
2019-05-28T06:49:39.736Z,14.50
2019-05-28T06:52:08.283Z,14.40
2019-05-28T06:54:36.744Z,14.50
2019-05-28T06:57:19.977Z,14.50
2019-05-28T07:03:10.728Z,14.60
2019-05-28T07:05:42.102Z,14.50
2019-05-28T07:08:10.579Z,14.50
2019-05-28T07:10:56.557Z,14.60
2019-05-28T07:13:13.975Z,14.60
2019-05-28T07:15:52.625Z,14.60
2019-05-28T07:18:23.869Z,14.70
2019-05-28T07:20:52.344Z,14.90
2019-05-28T07:23:21.793Z,15.40
2019-05-28T07:25:51.890Z,15.60
2019-05-28T07:28:24.917Z,15.70
2019-05-28T07:30:53.386Z,15.80
2019-05-28T07:33:24.782Z,16.10
2019-05-28T07:35:54.884Z,17.00
2019-05-28T07:38:26.145Z,18.30
2019-05-28T07:40:55.911Z,19.80
2019-05-28T07:43:24.441Z,20.80
2019-05-28T07:46:01.170Z,21.10
2019-05-28T07:48:29.638Z,21.20
2019-05-28T07:50:58.102Z,20.70
2019-05-28T07:53:39.928Z,20.40
2019-05-28T07:56:01.549Z,20.00
2019-05-28T07:58:32.826Z,19.60
2019-05-28T08:01:07.118Z,19.20
2019-05-28T08:03:43.217Z,18.70
2019-05-28T08:06:17.641Z,18.40
2019-05-28T08:08:46.182Z,18.20
2019-05-28T08:11:17.404Z,18.10
2019-05-28T08:13:52.117Z,17.80
2019-05-28T08:16:19.291Z,17.50
2019-05-28T08:18:48.008Z,17.30
2019-05-28T08:21:22.517Z,17.20
2019-05-28T08:23:52.302Z,17.20
2019-05-28T08:26:23.554Z,17.20
2019-05-28T08:28:53.662Z,17.20
2019-05-28T08:31:22.122Z,17.40
2019-05-28T08:33:53.520Z,17.60
2019-05-28T08:36:24.886Z,17.70
2019-05-28T08:39:11.278Z,17.80
2019-05-28T08:41:42.917Z,17.80
2019-05-28T08:44:12.686Z,17.80
2019-05-28T08:46:49.613Z,17.90
2019-05-28T08:49:24.160Z,18.10
2019-05-28T08:51:55.877Z,18.30
2019-05-28T08:54:24.370Z,18.50
2019-05-28T08:56:55.983Z,18.60
2019-05-28T08:59:35.778Z,18.90
2019-05-28T09:02:26.420Z,19.10
2019-05-28T09:04:39.017Z,19.40
2019-05-28T09:07:10.842Z,19.80
2019-05-28T09:09:39.384Z,20.20
2019-05-28T09:12:13.314Z,20.60
2019-05-28T09:14:55.635Z,21.10
2019-05-28T09:17:14.662Z,21.60
2019-05-28T09:20:28.957Z,21.70
2019-05-28T09:23:00.410Z,21.80
2019-05-28T09:25:29.026Z,22.10
2019-05-28T09:28:00.419Z,22.00
2019-05-28T09:30:31.765Z,21.80
2019-05-28T09:33:01.986Z,21.40
2019-05-28T09:35:44.560Z,21.10
2019-05-28T09:38:21.356Z,20.90
2019-05-28T09:40:51.746Z,20.90
2019-05-28T09:43:23.476Z,20.90
2019-05-28T09:45:51.952Z,20.90
2019-05-28T09:48:20.472Z,20.80
2019-05-28T09:50:51.886Z,20.90
2019-05-28T09:53:21.710Z,20.60
2019-05-28T09:55:50.173Z,20.30
2019-05-28T09:58:18.634Z,20.10
2019-05-28T10:00:57.651Z,19.90
2019-05-28T10:03:22.241Z,19.70
2019-05-28T10:06:06.769Z,19.60
2019-05-28T10:08:21.769Z,19.60
2019-05-28T10:10:53.369Z,19.70
2019-05-28T10:13:37.795Z,19.80
2019-05-28T10:16:03.558Z,19.70
2019-05-28T10:18:33.654Z,19.70
2019-05-28T10:21:17.047Z,19.70
2019-05-28T10:23:38.274Z,19.60
2019-05-28T10:26:14.047Z,19.40
2019-05-28T10:28:44.321Z,19.30
2019-05-28T10:31:17.385Z,19.10
2019-05-28T10:33:45.912Z,18.90
2019-05-28T10:36:34.274Z,18.70
2019-05-28T10:38:47.509Z,18.50
2019-05-28T10:41:19.006Z,18.40
2019-05-28T10:43:59.229Z,18.30
2019-05-28T10:46:30.621Z,18.10
2019-05-28T10:48:59.079Z,18.10
2019-05-28T10:51:29.177Z,18.10
2019-05-28T10:54:02.122Z,18.30
2019-05-28T10:56:33.914Z,18.30
2019-05-28T10:59:02.369Z,18.50
2019-05-28T11:01:38.613Z,18.60
2019-05-28T11:04:10.122Z,18.90
2019-05-28T11:06:51.542Z,19.10
2019-05-28T11:09:12.322Z,19.20
2019-05-28T11:11:42.429Z,19.30
2019-05-28T11:14:10.889Z,19.50
2019-05-28T11:16:39.357Z,19.80
2019-05-28T11:19:10.186Z,20.00
2019-05-28T11:21:41.603Z,20.40
2019-05-28T11:24:11.322Z,20.60
2019-05-28T11:26:41.426Z,20.70
2019-05-28T11:29:11.594Z,20.90
2019-05-28T11:31:42.741Z,21.20
2019-05-28T11:34:12.528Z,21.40
2019-05-28T11:37:09.470Z,21.60
2019-05-28T11:39:29.928Z,21.50
2019-05-28T11:41:58.469Z,21.40
2019-05-28T11:44:26.927Z,21.40
2019-05-28T11:46:57.035Z,21.40
2019-05-28T11:49:25.491Z,21.40
2019-05-28T11:51:54.148Z,21.40
2019-05-28T11:54:22.608Z,21.50
2019-05-28T11:56:51.127Z,21.60
2019-05-28T11:59:25.435Z,21.60
2019-05-28T12:01:56.845Z,21.40
2019-05-28T12:04:25.319Z,21.30
2019-05-28T12:06:56.871Z,21.20
2019-05-28T12:09:28.429Z,21.00
2019-05-28T12:12:03.079Z,20.60
2019-05-28T12:14:36.082Z,20.10
2019-05-28T12:17:04.618Z,19.70
2019-05-28T12:19:37.379Z,19.50
2019-05-28T12:22:10.570Z,19.20
2019-05-28T12:24:40.918Z,19.10
2019-05-28T12:27:11.322Z,19.00
2019-05-28T12:29:51.968Z,18.60
2019-05-28T12:32:16.548Z,18.40
2019-05-28T12:34:50.492Z,18.40
2019-05-28T12:37:22.050Z,18.40
2019-05-28T12:39:55.362Z,18.40
2019-05-28T12:42:23.493Z,18.20
2019-05-28T12:45:08.842Z,18.00
2019-05-28T12:47:27.757Z,18.00
2019-05-28T12:50:18.211Z,17.90
2019-05-28T12:52:36.265Z,17.80
2019-05-28T12:55:12.034Z,17.80
2019-05-28T12:57:46.057Z,17.60
2019-05-28T13:00:15.249Z,17.50
2019-05-28T13:02:54.059Z,17.40
2019-05-28T13:05:29.431Z,17.30
2019-05-28T13:08:08.742Z,17.10
2019-05-28T13:10:28.093Z,17.00
2019-05-28T13:13:05.478Z,16.80
2019-05-28T13:15:31.491Z,16.70
2019-05-28T13:18:03.040Z,16.60
2019-05-28T13:20:34.784Z,16.50
2019-05-28T13:23:10.202Z,16.40
2019-05-28T13:25:58.839Z,16.30
2019-05-28T13:28:27.337Z,16.10
2019-05-28T13:31:09.807Z,16.10
2019-05-28T13:33:39.948Z,16.00
2019-05-28T13:36:10.054Z,16.10
2019-05-28T13:38:53.389Z,16.20
2019-05-28T13:41:13.955Z,16.30
2019-05-28T13:43:43.010Z,16.50
2019-05-28T13:46:11.474Z,16.50
2019-05-28T13:48:42.769Z,16.50
2019-05-28T13:51:12.875Z,16.60
2019-05-28T13:53:46.080Z,16.50
2019-05-28T13:56:20.537Z,16.60
2019-05-28T13:58:52.414Z,16.50
2019-05-28T14:01:23.435Z,16.60
2019-05-28T14:03:51.190Z,16.60
2019-05-28T14:06:19.662Z,16.70
2019-05-28T14:09:03.344Z,16.70
2019-05-28T14:11:34.582Z,16.80
2019-05-28T14:14:03.394Z,16.70
2019-05-28T14:16:35.142Z,16.70
2019-05-28T14:19:06.310Z,16.60
2019-05-28T14:21:42.791Z,16.40
2019-05-28T14:24:11.350Z,16.10
2019-05-28T14:26:45.358Z,15.80
2019-05-28T14:29:15.579Z,15.60
2019-05-28T14:31:46.866Z,15.40
2019-05-28T14:34:15.415Z,15.30
2019-05-28T14:36:49.914Z,15.30
2019-05-28T14:39:20.474Z,15.30
2019-05-28T14:41:48.718Z,15.30
2019-05-28T14:44:18.976Z,15.40
2019-05-28T14:46:59.365Z,15.40
2019-05-28T14:49:30.868Z,15.40
2019-05-28T14:52:02.934Z,15.50
2019-05-28T14:54:41.791Z,15.60
2019-05-28T14:57:11.978Z,15.70
2019-05-28T14:59:42.080Z,15.80
2019-05-28T15:02:14.420Z,15.90
2019-05-28T15:04:43.017Z,15.90
2019-05-28T15:07:17.341Z,16.00
2019-05-28T15:09:45.908Z,16.00
2019-05-28T15:12:14.474Z,16.00
2019-05-28T15:14:43.291Z,15.90
2019-05-28T15:17:13.730Z,15.70
2019-05-28T15:19:45.304Z,15.60
2019-05-28T15:22:16.796Z,15.40
2019-05-28T15:24:45.485Z,15.30
2019-05-28T15:27:20.038Z,15.20
2019-05-28T15:29:49.480Z,15.10
2019-05-28T15:32:19.654Z,15.10
2019-05-28T15:35:04.604Z,15.20
2019-05-28T15:37:39.911Z,15.20
2019-05-28T15:40:24.397Z,15.30
2019-05-28T15:43:06.764Z,15.40
2019-05-28T15:45:35.482Z,15.40
2019-05-28T15:48:05.817Z,15.50
2019-05-28T15:50:34.371Z,15.50
2019-05-28T15:53:05.439Z,15.50
2019-05-28T15:55:33.983Z,15.50
2019-05-28T15:58:05.276Z,15.40
2019-05-28T16:00:39.874Z,15.40
2019-05-28T16:03:08.855Z,15.30
2019-05-28T16:05:40.504Z,15.30
2019-05-28T16:08:09.457Z,15.30
2019-05-28T16:10:40.725Z,15.30
2019-05-28T16:13:13.846Z,15.30
2019-05-28T16:15:42.335Z,15.30
2019-05-28T16:18:10.896Z,15.20
2019-05-28T16:20:40.353Z,15.20
2019-05-28T16:23:17.711Z,15.20
2019-05-28T16:25:48.845Z,15.20
2019-05-28T16:28:18.955Z,15.10
2019-05-28T16:30:47.420Z,15.00
2019-05-28T16:33:16.297Z,15.00
2019-05-28T16:35:50.495Z,14.80
2019-05-28T16:38:18.974Z,14.70
2019-05-28T16:40:53.275Z,14.60
2019-05-28T16:43:21.747Z,14.60
2019-05-28T16:45:53.541Z,14.50
2019-05-28T16:48:28.635Z,14.50
2019-05-28T16:50:57.175Z,14.40
2019-05-28T16:53:27.769Z,14.40
2019-05-28T16:55:55.891Z,14.40
2019-05-28T16:58:24.366Z,14.30
2019-05-28T17:00:52.872Z,14.20
2019-05-28T17:03:21.506Z,14.20
2019-05-28T17:05:50.067Z,14.10
2019-05-28T17:08:22.794Z,14.10
2019-05-28T17:10:50.873Z,14.10
2019-05-28T17:13:30.338Z,14.00
2019-05-28T17:16:01.622Z,13.80
2019-05-28T17:18:35.024Z,13.70
2019-05-28T17:21:06.584Z,13.60
2019-05-28T17:23:45.573Z,13.50
2019-05-28T17:26:22.555Z,13.50
2019-05-28T17:28:54.597Z,13.50
2019-05-28T17:31:24.003Z,13.40
2019-05-28T17:34:04.913Z,13.40
2019-05-28T17:36:51.827Z,13.30
2019-05-28T17:39:20.396Z,13.30
2019-05-28T17:41:51.606Z,13.30
2019-05-28T17:44:20.177Z,13.30
2019-05-28T17:46:50.304Z,13.30
2019-05-28T17:49:24.487Z,13.30
2019-05-28T17:51:53.033Z,13.20
2019-05-28T17:54:27.659Z,13.20
2019-05-28T17:56:59.242Z,13.10
2019-05-28T17:59:36.304Z,13.00
2019-05-28T18:02:02.303Z,13.00
2019-05-28T18:04:32.830Z,13.00
2019-05-28T18:07:01.305Z,13.00
2019-05-28T18:09:32.550Z,12.90
2019-05-28T18:12:04.117Z,13.00
2019-05-28T18:14:38.381Z,13.00
2019-05-28T18:17:06.869Z,12.90
2019-05-28T18:19:46.938Z,12.80
2019-05-28T18:22:17.243Z,12.80
2019-05-28T18:24:45.774Z,12.70
2019-05-28T18:27:17.718Z,12.70
2019-05-28T18:29:55.178Z,12.70
2019-05-28T18:32:26.472Z,12.70
2019-05-28T18:34:56.949Z,12.70
2019-05-28T18:37:25.410Z,12.70
2019-05-28T18:39:55.224Z,12.70
2019-05-28T18:42:29.221Z,12.60
2019-05-28T18:44:59.393Z,12.60
2019-05-28T18:47:29.502Z,12.60
2019-05-28T18:50:03.395Z,12.50
2019-05-28T18:52:34.245Z,12.50
2019-05-28T18:55:04.028Z,12.50
2019-05-28T18:57:34.672Z,12.50
2019-05-28T19:00:04.565Z,12.40
2019-05-28T19:02:35.959Z,12.40
2019-05-28T19:05:09.633Z,12.40
2019-05-28T19:07:41.093Z,12.40
2019-05-28T19:10:12.754Z,12.40
2019-05-28T19:12:44.145Z,12.30
2019-05-28T19:15:15.598Z,12.30
2019-05-28T19:17:46.653Z,12.30
2019-05-28T19:20:16.181Z,12.20
2019-05-28T19:22:48.163Z,12.20
2019-05-28T19:25:17.064Z,12.20
2019-05-28T19:27:47.207Z,12.20
2019-05-28T19:30:19.981Z,12.20
2019-05-28T19:32:48.530Z,12.20
2019-05-28T19:35:20.542Z,12.20
2019-05-28T19:37:52.410Z,12.20
2019-05-28T19:40:43.570Z,12.10
2019-05-28T19:43:20.707Z,12.10
2019-05-28T19:45:49.214Z,12.10
2019-05-28T19:48:17.780Z,12.00
2019-05-28T19:50:51.590Z,12.00
2019-05-28T19:53:19.997Z,12.00
2019-05-28T19:55:54.310Z,12.00
2019-05-28T19:58:28.344Z,11.90
2019-05-28T20:00:56.771Z,11.90
2019-05-28T20:03:26.823Z,11.80
2019-05-28T20:05:57.747Z,11.80
2019-05-28T20:08:28.849Z,11.80
2019-05-28T20:11:00.188Z,11.70
2019-05-28T20:13:31.050Z,11.70
2019-05-28T20:16:02.382Z,11.70
2019-05-28T20:18:32.465Z,11.70
2019-05-28T20:21:02.422Z,11.70
2019-05-28T20:23:33.638Z,11.70
2019-05-28T20:26:10.990Z,11.70
2019-05-28T20:28:42.597Z,11.70
2019-05-28T20:31:15.336Z,11.70
2019-05-28T20:33:43.761Z,11.60
2019-05-28T20:36:16.516Z,11.60
2019-05-28T20:38:45.158Z,11.60
2019-05-28T20:41:16.285Z,11.60
2019-05-28T20:43:44.701Z,11.60
2019-05-28T20:46:16.059Z,11.60
2019-05-28T20:48:44.478Z,11.60
2019-05-28T20:51:21.449Z,11.60
2019-05-28T20:53:46.324Z,11.60
2019-05-28T20:56:21.941Z,11.60
2019-05-28T20:59:05.175Z,11.60
2019-05-28T21:01:35.238Z,11.50
2019-05-28T21:04:06.553Z,11.50
2019-05-28T21:06:35.502Z,11.40
2019-05-28T21:09:13.019Z,11.30
2019-05-28T21:11:41.654Z,11.20
2019-05-28T21:14:46.753Z,11.20
2019-05-28T21:17:20.333Z,11.10
2019-05-28T21:19:51.913Z,11.00
2019-05-28T21:22:26.566Z,11.00
2019-05-28T21:24:56.276Z,10.90
2019-05-28T21:27:29.388Z,10.90
2019-05-28T21:29:58.327Z,10.90
2019-05-28T21:32:29.879Z,10.90
2019-05-28T21:35:00.818Z,10.90
2019-05-28T21:37:31.560Z,11.00
2019-05-28T21:39:59.977Z,10.90
2019-05-28T21:42:28.897Z,10.90
2019-05-28T21:45:07.115Z,10.90
2019-05-28T21:47:35.549Z,10.90
2019-05-28T21:50:09.490Z,10.90
2019-05-28T21:52:40.636Z,10.80
2019-05-28T21:55:15.351Z,10.80
2019-05-28T21:57:57.711Z,10.80
2019-05-28T22:00:39.522Z,10.80
2019-05-28T22:03:09.598Z,10.80
2019-05-28T22:05:42.266Z,10.80
2019-05-28T22:08:15.178Z,10.90
2019-05-28T22:10:44.787Z,10.90
2019-05-28T22:13:21.724Z,10.90
2019-05-28T22:15:45.018Z,10.80
2019-05-28T22:18:15.096Z,10.80
2019-05-28T22:20:43.514Z,10.80
2019-05-28T22:23:20.803Z,10.80
2019-05-28T22:25:48.513Z,10.80
2019-05-28T22:28:16.938Z,10.80
2019-05-28T22:30:49.622Z,10.80
2019-05-28T22:33:23.617Z,10.80
2019-05-28T22:36:01.365Z,10.70
2019-05-28T22:38:35.902Z,10.70
2019-05-28T22:41:04.528Z,10.70
2019-05-28T22:43:34.734Z,10.60
2019-05-28T22:46:03.366Z,10.50
2019-05-28T22:48:34.710Z,10.50
2019-05-28T22:51:10.882Z,10.40
2019-05-28T22:53:46.418Z,10.30
2019-05-28T22:56:16.407Z,10.30
2019-05-28T22:58:46.370Z,10.20
2019-05-28T23:01:14.790Z,10.10
2019-05-28T23:03:43.222Z,10.10
2019-05-28T23:06:18.106Z,10.00
2019-05-28T23:08:48.189Z,10.00
2019-05-28T23:11:34.313Z,9.90
2019-05-28T23:14:06.325Z,9.90
2019-05-28T23:16:39.044Z,9.90
2019-05-28T23:19:11.122Z,9.80
2019-05-28T23:21:39.846Z,9.80
2019-05-28T23:24:09.322Z,9.80
2019-05-28T23:26:37.875Z,9.80
2019-05-28T23:29:09.844Z,9.80
2019-05-28T23:31:43.990Z,9.80
2019-05-28T23:34:15.122Z,9.80
2019-05-28T23:36:43.537Z,9.80
2019-05-28T23:39:14.672Z,9.80
2019-05-28T23:41:48.674Z,9.80
2019-05-28T23:44:24.497Z,9.80
2019-05-28T23:46:58.402Z,9.80
2019-05-28T23:49:35.511Z,9.80
2019-05-28T23:52:08.527Z,9.70
2019-05-28T23:54:37.222Z,9.70
2019-05-28T23:57:05.882Z,9.70
2019-05-28T23:59:35.382Z,9.70
